Time;durP1;ratioP1;P1;durP2;ratioP2;P2;SDS_P1;SDS_P2;PMS_P1;PMS_P2;Temp;Humidity;BMP_temperature;BMP_pressure;BME280_temperature;BME280_humidity;BME280_pressure;Samples;Min_cycle;Max_cycle;Signal;HPM_P1;HPM_P2
2021/05/20 00:01:42;;;;;;;3.72;2.88;;;;;;;11.61;69.61;100865.88;5005404;28;20068;-70
2021/05/20 00:04:10;;;;;;;5.35;3.05;;;;;;;11.74;69.90;100870.44;5000157;28;20537;-70
2021/05/20 00:06:37;;;;;;;4.82;3.00;;;;;;;11.72;69.41;100877.59;5000309;28;20134;-70
2021/05/20 00:13:11;;;;;;;4.72;2.97;;;;;;;11.80;69.25;100873.56;5003199;28;20119;-72
2021/05/20 00:15:38;;;;;;;4.88;2.90;;;;;;;11.74;69.67;100873.06;5006992;28;20159;-71
2021/05/20 00:18:06;;;;;;;7.97;2.88;;;;;;;11.61;70.10;100875.59;5008506;28;20054;-70
2021/05/20 00:24:20;;;;;;;5.43;3.15;;;;;;;11.33;70.71;100873.72;5028091;28;20042;-72
2021/05/20 00:26:48;;;;;;;4.65;2.92;;;;;;;11.39;71.02;100881.25;5003342;28;20085;-71
2021/05/20 00:29:15;;;;;;;3.95;2.80;;;;;;;11.47;70.72;100884.31;5008567;28;21890;-71
2021/05/20 00:31:42;;;;;;;5.25;3.10;;;;;;;11.53;70.53;100889.25;5005984;28;20379;-71
2021/05/20 00:34:09;;;;;;;4.65;2.90;;;;;;;11.52;70.68;100892.78;4990236;28;20435;-71
2021/05/20 00:36:36;;;;;;;3.22;2.45;;;;;;;11.41;71.39;100896.06;5008330;28;20129;-72
2021/05/20 00:39:04;;;;;;;4.32;2.67;;;;;;;11.46;71.51;100895.78;5005210;28;20536;-71
2021/05/20 00:41:32;;;;;;;4.78;2.55;;;;;;;11.42;71.66;100896.91;4998641;28;20516;-71
2021/05/20 00:43:59;;;;;;;4.43;2.80;;;;;;;11.32;72.50;100904.50;5003163;28;20046;-71
2021/05/20 00:46:26;;;;;;;3.78;2.70;;;;;;;11.43;72.42;100901.22;5003846;28;20157;-71
2021/05/20 00:48:53;;;;;;;4.13;2.50;;;;;;;11.48;72.53;100901.81;4988660;28;20058;-71
2021/05/20 00:51:20;;;;;;;3.50;2.65;;;;;;;11.36;72.77;100906.03;5003145;28;20131;-71
2021/05/20 00:53:51;;;;;;;3.25;2.38;;;;;;;11.23;73.18;100912.09;5003749;28;20069;-71
2021/05/20 00:56:21;;;;;;;5.10;2.63;;;;;;;11.30;73.26;100916.06;5001898;28;20130;-71
2021/05/20 00:58:49;;;;;;;4.32;2.72;;;;;;;11.36;72.94;100902.53;4984148;28;20407;-70
2021/05/20 01:01:16;;;;;;;6.18;2.72;;;;;;;11.32;73.28;100901.03;4986301;28;20054;-71
2021/05/20 01:03:44;;;;;;;2.95;2.38;;;;;;;11.32;73.28;100904.50;4985607;28;20050;-71
2021/05/20 01:06:11;;;;;;;5.28;2.72;;;;;;;11.28;73.62;100910.03;5002102;28;20058;-72
2021/05/20 01:08:39;;;;;;;4.30;2.72;;;;;;;11.23;73.78;100912.94;5005457;28;20050;-71
2021/05/20 01:11:06;;;;;;;4.43;2.75;;;;;;;11.15;74.10;100910.72;5002876;28;20058;-70
2021/05/20 01:13:33;;;;;;;5.35;2.47;;;;;;;11.10;74.16;100912.78;5003111;28;20049;-70
2021/05/20 01:16:00;;;;;;;3.17;2.50;;;;;;;11.06;74.48;100910.41;5002790;28;20157;-70
2021/05/20 01:18:27;;;;;;;3.75;2.60;;;;;;;11.04;74.68;100902.59;5008685;28;20343;-71
2021/05/20 01:20:54;;;;;;;3.78;2.97;;;;;;;11.04;74.96;100910.50;4989043;28;20082;-70
2021/05/20 01:23:22;;;;;;;3.10;2.22;;;;;;;10.95;75.42;100908.38;5003087;28;20046;-70
2021/05/20 01:25:50;;;;;;;5.13;2.78;;;;;;;10.95;75.68;100918.06;4986026;28;20054;-70
2021/05/20 01:28:22;;;;;;;2.85;2.17;;;;;;;10.86;75.58;100920.28;5001506;28;20141;-71
2021/05/20 01:30:50;;;;;;;6.35;2.67;;;;;;;10.90;75.54;100923.59;5003690;28;20414;-70
2021/05/20 01:33:18;;;;;;;3.83;2.72;;;;;;;10.92;75.71;100931.41;5002385;28;20081;-70
2021/05/20 01:35:46;;;;;;;4.28;2.90;;;;;;;10.83;76.09;100924.84;5003494;28;20145;-70
2021/05/20 01:40:52;;;;;;;5.15;2.35;;;;;;;10.84;76.88;100921.28;4998878;28;20062;-71
2021/05/20 01:43:20;;;;;;;3.75;1.90;;;;;;;10.90;76.83;100926.22;5000457;28;20137;-70
2021/05/20 01:45:57;;;;;;;3.25;1.80;;;;;;;10.97;76.29;100927.56;5000436;28;20054;-70
2021/05/20 01:48:26;;;;;;;6.47;2.25;;;;;;;11.01;76.56;100926.47;5004485;28;20050;-71
2021/05/20 01:50:53;;;;;;;9.93;2.25;;;;;;;11.02;76.07;100924.69;5002063;28;20078;-70
2021/05/20 01:53:20;;;;;;;2.75;2.15;;;;;;;11.01;76.61;100915.09;5000130;28;20161;-71
2021/05/20 01:55:48;;;;;;;2.42;1.80;;;;;;;10.90;76.33;100915.69;5001071;28;20068;-72
2021/05/20 01:58:16;;;;;;;2.88;1.98;;;;;;;10.82;76.62;100918.75;4995763;28;20124;-71
2021/05/20 02:00:43;;;;;;;3.63;1.83;;;;;;;10.85;76.94;100922.97;4998787;28;20495;-71
2021/05/20 02:03:10;;;;;;;3.17;1.88;;;;;;;10.92;76.44;100921.72;5000996;28;20132;-70
2021/05/20 02:05:37;;;;;;;2.60;2.00;;;;;;;10.91;76.65;100922.66;4998745;28;20385;-71
2021/05/20 02:08:05;;;;;;;4.18;1.92;;;;;;;10.86;76.97;100922.06;5000194;28;20129;-70
2021/05/20 02:14:44;;;;;;;3.35;2.20;;;;;;;10.65;78.00;100921.44;4994114;28;20411;-68
2021/05/20 02:17:11;;;;;;;4.68;1.90;;;;;;;10.73;78.03;100919.25;5003501;28;20083;-69
2021/05/20 02:19:38;;;;;;;5.68;2.53;;;;;;;10.62;78.54;100918.97;4986130;28;20533;-69
2021/05/20 02:22:05;;;;;;;4.13;2.22;;;;;;;10.73;78.45;100918.41;4999320;28;20058;-71
2021/05/20 02:24:32;;;;;;;3.35;2.00;;;;;;;10.65;78.20;100927.56;5000180;28;20076;-71
2021/05/20 02:27:06;;;;;;;4.85;1.85;;;;;;;10.77;77.94;100920.78;5011482;28;20050;-70
2021/05/20 02:29:33;;;;;;;4.35;1.90;;;;;;;10.77;77.59;100920.78;5014620;28;20110;-72
2021/05/20 02:32:00;;;;;;;2.92;2.35;;;;;;;10.71;77.89;100926.38;5006005;28;20088;-69
2021/05/20 02:34:27;;;;;;;2.20;1.77;;;;;;;10.69;78.09;100930.88;5000337;28;20130;-71
2021/05/20 02:36:55;;;;;;;2.25;1.88;;;;;;;10.69;78.75;100935.31;4983202;28;20364;-70
2021/05/20 02:39:22;;;;;;;4.03;2.30;;;;;;;10.70;78.80;100937.00;5002815;28;20235;-69
2021/05/20 02:41:49;;;;;;;3.80;2.05;;;;;;;10.63;79.03;100939.97;4980390;28;20085;-70
2021/05/20 02:44:16;;;;;;;2.83;2.33;;;;;;;10.69;79.14;100943.22;4999282;28;20515;-70
2021/05/20 02:46:43;;;;;;;4.57;2.30;;;;;;;10.61;79.66;100940.97;5000850;28;20368;-69
2021/05/20 02:49:11;;;;;;;5.70;2.35;;;;;;;10.51;80.68;100943.25;5001046;28;20078;-70
2021/05/20 02:51:38;;;;;;;2.53;2.30;;;;;;;10.48;80.91;100946.03;4983675;28;20152;-70
2021/05/20 02:54:05;;;;;;;4.18;2.58;;;;;;;10.51;80.77;100939.78;5000057;28;20161;-70
2021/05/20 02:56:32;;;;;;;2.42;2.20;;;;;;;10.55;80.94;100944.78;4998847;28;20069;-70
2021/05/20 02:59:00;;;;;;;6.30;2.55;;;;;;;10.56;80.87;100948.28;4998549;28;20140;-69
2021/05/20 03:01:27;;;;;;;3.40;2.28;;;;;;;10.58;80.66;100943.75;4997508;28;20141;-70
2021/05/20 03:03:54;;;;;;;3.70;2.10;;;;;;;10.49;81.25;100945.13;5003074;28;20133;-70
2021/05/20 03:06:21;;;;;;;4.13;2.00;;;;;;;10.59;81.17;100954.22;5003667;28;20146;-69
2021/05/20 03:08:49;;;;;;;3.83;2.30;;;;;;;10.63;80.68;100941.75;5003302;28;20130;-69
2021/05/20 03:11:16;;;;;;;4.07;2.58;;;;;;;10.66;80.38;100952.09;5001746;28;20101;-69
2021/05/20 03:13:43;;;;;;;3.33;2.50;;;;;;;10.60;80.55;100961.19;5004652;28;20141;-70
2021/05/20 03:16:10;;;;;;;3.83;2.80;;;;;;;10.61;80.48;100956.78;5000893;28;20523;-70
2021/05/20 03:18:37;;;;;;;2.97;2.28;;;;;;;10.56;80.75;100954.38;5001762;28;20046;-70
2021/05/20 03:21:04;;;;;;;3.20;2.30;;;;;;;10.60;80.78;100955.94;4996550;28;20119;-70
2021/05/20 03:23:32;;;;;;;3.45;2.53;;;;;;;10.58;80.87;100957.81;5003877;28;20061;-70
2021/05/20 03:25:59;;;;;;;4.35;2.50;;;;;;;10.69;80.82;100959.84;5003844;28;20648;-70
2021/05/20 03:28:26;;;;;;;3.78;2.58;;;;;;;10.74;80.43;100962.22;5003442;28;20056;-69
2021/05/20 03:30:53;;;;;;;7.93;2.40;;;;;;;10.67;80.86;100960.84;5005882;28;20463;-71
2021/05/20 03:33:21;;;;;;;3.10;2.80;;;;;;;10.71;80.63;100960.59;5003427;28;20058;-71
2021/05/20 03:35:48;;;;;;;3.97;2.70;;;;;;;10.67;81.37;100966.13;5002349;28;20088;-70
2021/05/20 03:38:15;;;;;;;6.90;2.88;;;;;;;10.59;82.33;100958.66;5004504;28;20054;-73
2021/05/20 03:40:43;;;;;;;5.38;3.13;;;;;;;10.61;83.47;100964.66;5006769;28;20125;-70
2021/05/20 03:43:10;;;;;;;4.45;3.30;;;;;;;10.50;85.03;100965.25;5003568;28;20068;-72
2021/05/20 03:45:37;;;;;;;5.88;3.53;;;;;;;10.48;86.11;100969.72;5001550;28;20532;-71
2021/05/20 03:48:05;;;;;;;4.97;3.83;;;;;;;10.42;87.02;100962.19;5003859;28;20046;-70
2021/05/20 03:50:32;;;;;;;4.57;4.18;;;;;;;10.35;87.59;100972.16;5000190;28;20136;-70
2021/05/20 03:53:00;;;;;;;6.25;3.95;;;;;;;10.25;89.04;100970.09;4987357;28;20046;-69
2021/05/20 03:55:27;;;;;;;7.10;4.22;;;;;;;10.24;90.19;100971.88;5003289;28;20148;-70
2021/05/20 03:57:54;;;;;;;6.82;3.95;;;;;;;10.38;88.67;100968.53;5002360;28;20077;-69
2021/05/20 04:00:22;;;;;;;5.80;5.03;;;;;;;10.41;88.89;100971.00;5002602;28;20113;-69
2021/05/20 04:02:49;;;;;;;7.40;4.43;;;;;;;10.38;88.77;100972.00;5000069;28;20131;-69
2021/05/20 04:05:16;;;;;;;8.07;4.43;;;;;;;10.49;89.61;100976.72;5006070;28;20050;-71
2021/05/20 04:07:44;;;;;;;5.38;4.60;;;;;;;10.52;89.84;100978.31;5010544;28;20070;-70
2021/05/20 04:10:11;;;;;;;6.30;4.10;;;;;;;10.51;89.29;100974.84;5015382;28;20046;-70
2021/05/20 04:12:38;;;;;;;6.38;4.03;;;;;;;10.58;89.14;100983.25;5011445;28;20114;-69
2021/05/20 04:15:06;;;;;;;5.45;4.18;;;;;;;10.54;89.37;100993.13;5001403;28;20422;-70
2021/05/20 04:17:33;;;;;;;6.93;4.28;;;;;;;10.36;90.49;100988.81;5005076;28;20046;-71
2021/05/20 04:20:00;;;;;;;6.38;3.95;;;;;;;10.46;89.30;100991.81;5025927;23;20390;-69
2021/05/20 04:22:28;;;;;;;6.38;5.10;;;;;;;10.58;88.69;100988.53;4997606;28;20141;-66
2021/05/20 04:24:55;;;;;;;10.07;5.05;;;;;;;10.56;89.43;100999.13;4997711;28;20055;-68
2021/05/20 04:27:22;;;;;;;5.57;4.28;;;;;;;10.53;89.59;100999.28;5000698;28;20050;-69
2021/05/20 04:29:50;;;;;;;7.97;5.30;;;;;;;10.29;91.13;101000.59;5028412;28;20412;-69
2021/05/20 04:32:17;;;;;;;5.55;4.38;;;;;;;10.30;91.86;101004.91;5101838;28;20257;-69
2021/05/20 04:34:45;;;;;;;5.80;4.90;;;;;;;10.47;90.86;100999.63;5058832;28;20409;-67
2021/05/20 04:37:12;;;;;;;6.70;4.60;;;;;;;10.57;91.10;101011.38;5079349;28;20062;-69
2021/05/20 04:39:39;;;;;;;5.72;5.00;;;;;;;10.62;89.86;101011.13;5091029;28;20048;-69
2021/05/20 04:42:06;;;;;;;10.43;4.65;;;;;;;10.43;91.08;101021.78;5085815;28;20040;-67
2021/05/20 04:44:33;;;;;;;5.28;4.68;;;;;;;10.53;90.69;101016.88;5091008;28;20052;-68
2021/05/20 04:47:01;;;;;;;5.68;4.47;;;;;;;10.67;90.01;101018.78;5054206;28;20048;-67
2021/05/20 04:49:28;;;;;;;5.13;4.63;;;;;;;10.76;89.88;101015.66;5049962;28;20145;-68
2021/05/20 04:51:55;;;;;;;7.97;4.78;;;;;;;10.73;89.70;101023.75;5083937;28;20066;-67
2021/05/20 04:54:22;;;;;;;4.53;4.10;;;;;;;10.94;89.01;101027.84;5067065;28;20076;-69
2021/05/20 04:56:49;;;;;;;7.53;4.88;;;;;;;11.11;88.46;101019.88;5067171;28;20617;-69
2021/05/20 04:59:17;;;;;;;6.93;4.10;;;;;;;11.24;87.23;101027.94;5090350;28;20047;-69
2021/05/20 05:01:44;;;;;;;8.52;4.88;;;;;;;11.45;86.77;101028.56;5062030;28;20081;-66
2021/05/20 05:04:11;;;;;;;5.85;5.28;;;;;;;11.38;86.48;101021.91;5074941;28;20054;-68
2021/05/20 05:06:38;;;;;;;6.80;4.78;;;;;;;11.29;87.20;101022.44;5084923;28;20120;-69
2021/05/20 05:09:05;;;;;;;6.95;4.45;;;;;;;11.39;87.31;101024.47;5082247;28;20122;-70
2021/05/20 05:11:33;;;;;;;6.15;4.85;;;;;;;11.44;87.26;101021.59;5057941;28;20052;-69
2021/05/20 05:14:00;;;;;;;6.88;4.45;;;;;;;11.72;86.58;101028.78;5075738;28;20691;-69
2021/05/20 05:16:27;;;;;;;6.05;5.05;;;;;;;11.78;85.43;101020.50;5071764;28;20079;-69
2021/05/20 05:18:54;;;;;;;8.13;5.05;;;;;;;11.98;85.58;101029.06;5090662;28;20093;-67
2021/05/20 05:21:22;;;;;;;6.63;5.38;;;;;;;12.13;84.93;101029.03;5098672;28;20048;-70
2021/05/20 05:23:49;;;;;;;4.97;4.10;;;;;;;12.47;84.06;101023.53;5067845;28;20052;-69
2021/05/20 05:26:16;;;;;;;6.40;4.53;;;;;;;12.80;81.99;101037.34;5072738;28;20047;-71
2021/05/20 05:28:43;;;;;;;7.22;4.85;;;;;;;13.00;80.98;101038.72;5085308;28;20138;-71
2021/05/20 05:31:13;;;;;;;6.60;5.03;;;;;;;13.40;78.73;101026.50;5062202;28;20106;-71
2021/05/20 05:33:40;;;;;;;7.95;4.05;;;;;;;13.66;75.70;101032.75;5060015;28;20051;-72
2021/05/20 05:36:07;;;;;;;5.40;3.97;;;;;;;14.00;75.29;101029.69;5088999;28;20078;-72
2021/05/20 05:38:34;;;;;;;6.00;5.05;;;;;;;14.52;72.89;101027.03;5084376;28;20065;-73
2021/05/20 05:41:02;;;;;;;6.20;4.25;;;;;;;14.93;70.69;101026.78;5092982;28;20052;-72
2021/05/20 05:43:30;;;;;;;6.07;3.90;;;;;;;16.44;64.53;101025.38;5072121;28;20090;-73
2021/05/20 05:45:57;;;;;;;5.63;3.40;;;;;;;17.70;60.51;101020.69;5070074;28;20698;-72
2021/05/20 05:48:24;;;;;;;9.60;3.88;;;;;;;16.50;62.99;101021.38;5093014;28;20043;-71
2021/05/20 05:50:54;;;;;;;8.73;3.30;;;;;;;16.86;62.54;101023.00;5080379;28;20044;-72
2021/05/20 05:53:29;;;;;;;9.50;4.82;;;;;;;16.35;61.92;101026.09;5075610;28;20054;-72
2021/05/20 05:55:57;;;;;;;6.22;3.95;;;;;;;16.04;63.52;101030.22;5067993;28;20109;-72
2021/05/20 05:58:24;;;;;;;8.00;3.60;;;;;;;15.27;66.03;101029.69;5047798;28;20052;-72
2021/05/20 06:00:51;;;;;;;5.68;3.88;;;;;;;15.43;65.58;101035.56;5070073;28;20054;-72
2021/05/20 06:03:19;;;;;;;5.93;3.53;;;;;;;15.75;65.66;101036.84;5054472;28;20129;-71
2021/05/20 06:05:47;;;;;;;7.60;4.10;;;;;;;17.24;59.90;101037.72;5064843;28;20528;-72
2021/05/20 06:08:15;;;;;;;11.70;7.10;;;;;;;16.78;60.36;101040.53;5067359;28;20511;-72
2021/05/20 06:10:43;;;;;;;7.78;4.03;;;;;;;16.09;62.26;101037.84;5072653;28;20047;-73
2021/05/20 06:13:11;;;;;;;3.55;3.22;;;;;;;15.75;63.09;101039.50;5075540;28;20573;-73
2021/05/20 06:15:38;;;;;;;6.13;3.47;;;;;;;15.74;63.30;101045.78;5054948;28;20048;-69
2021/05/20 06:18:06;;;;;;;8.73;4.18;;;;;;;15.25;65.12;101046.66;5070230;28;20044;-69
2021/05/20 06:20:33;;;;;;;5.03;4.07;;;;;;;14.87;66.05;101055.53;5087769;28;20054;-70
2021/05/20 06:23:00;;;;;;;8.50;4.50;;;;;;;14.27;69.08;101050.81;5069659;28;20152;-71
2021/05/20 06:25:28;;;;;;;10.55;4.30;;;;;;;13.81;70.94;101057.38;5068698;28;20067;-69
2021/05/20 06:27:55;;;;;;;8.07;4.63;;;;;;;14.14;69.38;101058.75;5098226;28;20400;-69
2021/05/20 06:30:23;;;;;;;10.30;4.05;;;;;;;14.29;68.39;101054.22;5054728;28;20526;-68
2021/05/20 06:32:50;;;;;;;5.07;3.80;;;;;;;14.51;67.16;101057.13;5070076;28;20078;-69
2021/05/20 06:35:17;;;;;;;7.30;4.40;;;;;;;14.50;67.54;101058.09;5093904;28;20046;-69
2021/05/20 06:37:44;;;;;;;6.63;3.85;;;;;;;14.74;65.99;101060.00;5092251;28;20051;-69
2021/05/20 06:40:12;;;;;;;7.68;3.72;;;;;;;15.01;65.32;101063.38;5089580;28;20066;-69
2021/05/20 06:42:39;;;;;;;8.63;4.90;;;;;;;14.50;66.33;101071.34;5070508;28;20047;-68
2021/05/20 06:45:07;;;;;;;7.00;4.18;;;;;;;14.62;66.88;101062.53;5067518;28;20061;-68
2021/05/20 06:47:34;;;;;;;9.48;4.35;;;;;;;15.67;63.53;101069.28;5055889;28;20155;-71
2021/05/20 06:50:02;;;;;;;11.30;4.53;;;;;;;16.43;61.25;101060.03;5065859;28;20634;-67
2021/05/20 06:52:30;;;;;;;6.72;4.03;;;;;;;16.07;62.27;101066.31;5065203;28;20731;-68
2021/05/20 06:54:57;;;;;;;9.13;4.22;;;;;;;16.08;61.96;101078.66;5083881;28;20072;-68
2021/05/20 06:57:29;;;;;;;12.18;3.80;;;;;;;15.59;63.90;101075.13;5077784;28;20148;-67
2021/05/20 06:59:57;;;;;;;6.60;3.55;;;;;;;16.14;62.22;101081.69;5081898;28;20067;-68
2021/05/20 07:02:26;;;;;;;4.88;3.80;;;;;;;16.14;60.15;101079.03;5069431;28;20136;-68
2021/05/20 07:04:54;;;;;;;5.07;3.30;;;;;;;16.17;60.51;101077.97;5079361;28;20253;-67
2021/05/20 07:07:24;;;;;;;7.20;3.65;;;;;;;16.43;59.98;101082.13;5073494;28;20089;-67
2021/05/20 07:09:53;;;;;;;4.43;3.25;;;;;;;16.66;58.18;101079.50;5079193;28;20071;-67
2021/05/20 07:12:21;;;;;;;10.88;4.22;;;;;;;16.40;58.40;101081.53;5070281;28;20415;-68
2021/05/20 07:14:48;;;;;;;4.38;3.15;;;;;;;18.59;53.28;101075.34;5092797;28;20075;-69
2021/05/20 07:17:15;;;;;;;4.50;3.42;;;;;;;19.98;48.80;101068.41;5090344;28;20079;-71
2021/05/20 07:19:42;;;;;;;10.15;3.38;;;;;;;18.86;51.10;101074.84;5028592;28;20626;-69
2021/05/20 07:22:09;;;;;;;5.93;3.05;;;;;;;18.29;52.96;101078.81;5067362;28;20115;-70
2021/05/20 07:24:37;;;;;;;7.35;3.20;;;;;;;17.49;54.53;101073.88;5033821;28;20456;-68
2021/05/20 07:27:04;;;;;;;5.32;2.85;;;;;;;16.61;57.39;101087.00;5062653;28;20528;-69
2021/05/20 07:29:31;;;;;;;8.18;3.58;;;;;;;16.82;55.44;101080.06;5049127;28;20087;-67
2021/05/20 07:31:59;;;;;;;4.60;2.85;;;;;;;20.68;44.83;101069.06;5086533;28;20127;-68
2021/05/20 07:34:27;;;;;;;3.22;2.10;;;;;;;23.08;39.15;101068.44;5073047;28;20060;-68
2021/05/20 07:36:54;;;;;;;4.18;2.50;;;;;;;22.62;38.90;101066.97;5068120;28;20494;-69
2021/05/20 07:39:21;;;;;;;7.07;2.28;;;;;;;23.52;36.93;101075.47;5069756;28;20044;-68
2021/05/20 07:41:49;;;;;;;3.65;1.70;;;;;;;25.28;32.73;101070.38;5068517;28;20078;-69
2021/05/20 07:44:16;;;;;;;8.65;2.88;;;;;;;28.52;28.00;101071.53;5073410;28;20044;-69
2021/05/20 07:46:43;;;;;;;5.05;1.88;;;;;;;26.97;28.85;101062.09;5086291;28;20104;-69
2021/05/20 07:49:11;;;;;;;8.98;2.83;;;;;;;23.13;34.98;101074.16;5084708;28;20217;-69
2021/05/20 07:51:38;;;;;;;9.63;1.92;;;;;;;24.21;34.22;101066.19;5063093;28;20048;-70
2021/05/20 07:54:06;;;;;;;4.65;1.95;;;;;;;24.94;31.84;101071.47;5056019;28;20043;-69
2021/05/20 07:56:34;;;;;;;6.35;2.08;;;;;;;24.60;32.94;101068.19;5079353;28;20072;-69
2021/05/20 07:59:02;;;;;;;4.70;1.95;;;;;;;23.58;34.79;101069.44;5063965;28;20101;-68
2021/05/20 08:01:31;;;;;;;5.80;2.10;;;;;;;23.04;36.22;101071.59;5086298;28;21000;-70
2021/05/20 08:04:11;;;;;;;4.80;1.83;;;;;;;23.36;35.34;101070.88;5074300;28;20097;-68
2021/05/20 08:09:24;;;;;;;6.90;2.08;;;;;;;19.50;43.11;101084.38;5074235;28;20044;-71
2021/05/20 08:11:52;;;;;;;3.45;2.10;;;;;;;20.85;40.05;101079.97;5088065;28;20057;-69
2021/05/20 08:14:19;;;;;;;5.80;2.30;;;;;;;22.61;37.09;101076.03;5058773;28;20105;-68
2021/05/20 08:16:46;;;;;;;4.03;1.75;;;;;;;23.07;35.01;101072.13;5093716;28;20047;-68
2021/05/20 08:19:13;;;;;;;7.88;1.85;;;;;;;24.81;31.43;101083.78;5079648;28;20052;-70
2021/05/20 08:21:41;;;;;;;6.65;1.67;;;;;;;22.22;35.39;101077.25;5080983;28;20627;-67
2021/05/20 08:24:10;;;;;;;14.05;2.60;;;;;;;19.87;40.91;101079.25;5061118;28;20051;-69
2021/05/20 08:26:37;;;;;;;6.63;2.00;;;;;;;17.66;45.95;101091.97;5077683;28;20049;-70
2021/05/20 08:29:05;;;;;;;8.65;2.40;;;;;;;19.20;42.61;101091.44;5092774;28;20071;-68
2021/05/20 08:31:34;;;;;;;4.93;1.60;;;;;;;19.26;41.96;101086.53;5084725;28;20135;-71
2021/05/20 08:34:01;;;;;;;9.23;2.55;;;;;;;18.42;43.70;101090.16;5068644;28;20094;-70
2021/05/20 08:36:31;;;;;;;7.65;2.00;;;;;;;18.66;43.33;101081.03;5088474;28;20063;-68
2021/05/20 08:38:58;;;;;;;8.30;1.77;;;;;;;19.01;43.63;101083.34;5052289;28;20087;-70
2021/05/20 08:41:28;;;;;;;5.43;1.80;;;;;;;18.03;44.37;101081.00;5059358;28;20517;-69
2021/05/20 08:43:56;;;;;;;6.50;1.70;;;;;;;18.74;44.21;101078.59;5056082;28;20395;-70
2021/05/20 08:46:24;;;;;;;8.15;1.77;;;;;;;17.85;45.01;101090.50;5079137;28;20058;-70
2021/05/20 08:48:51;;;;;;;6.28;2.80;;;;;;;18.02;44.92;101079.31;5062214;28;20469;-70
2021/05/20 08:51:19;;;;;;;5.78;2.33;;;;;;;18.85;43.46;101085.66;5071367;28;20076;-69
2021/05/20 08:53:47;;;;;;;4.95;1.65;;;;;;;19.22;43.08;101068.09;5076459;28;20048;-70
2021/05/20 08:56:17;;;;;;;6.85;1.70;;;;;;;18.59;43.81;101086.03;5071290;28;20131;-69
2021/05/20 08:58:45;;;;;;;3.47;1.75;;;;;;;18.66;43.41;101078.34;5070354;28;20054;-71
2021/05/20 09:01:41;;;;;;;2.05;1.30;;;;;;;19.27;42.14;101093.53;5092461;28;20036;-69
2021/05/20 09:04:09;;;;;;;6.72;1.77;;;;;;;19.12;40.62;101082.41;5094564;28;20105;-69
2021/05/20 09:06:54;;;;;;;8.63;1.52;;;;;;;18.12;42.46;101082.06;5065963;28;20055;-70
2021/05/20 09:09:24;;;;;;;3.40;1.50;;;;;;;18.16;44.79;101092.31;5081323;28;20098;-72
2021/05/20 09:11:53;;;;;;;8.00;2.08;;;;;;;18.45;45.06;101100.53;5059417;28;20068;-70
2021/05/20 09:14:29;;;;;;;5.25;2.40;;;;;;;18.96;43.61;101101.59;5089108;28;20120;-70
2021/05/20 09:17:18;;;;;;;2.58;1.05;;;;;;;18.44;42.24;101093.50;5090524;28;20147;-69
2021/05/20 09:19:54;;;;;;;4.38;1.30;;;;;;;18.27;42.19;101087.91;5087833;28;20062;-69
2021/05/20 09:22:21;;;;;;;6.60;1.48;;;;;;;18.18;43.77;101094.84;5057465;28;20048;-69
2021/05/20 09:24:56;;;;;;;6.68;1.38;;;;;;;18.47;43.21;101087.09;5091155;28;20056;-69
2021/05/20 09:27:42;;;;;;;3.75;1.67;;;;;;;19.11;42.09;101086.91;5068523;28;20127;-69
2021/05/20 09:30:13;;;;;;;3.22;1.35;;;;;;;19.34;41.59;101092.03;5073394;28;20066;-68
2021/05/20 09:32:58;;;;;;;2.92;1.70;;;;;;;19.14;42.28;101094.66;5086317;28;20044;-71
2021/05/20 09:35:30;;;;;;;3.53;1.35;;;;;;;17.91;45.17;101103.31;5052691;28;20048;-68
2021/05/20 09:38:10;;;;;;;3.03;1.33;;;;;;;17.78;44.68;101102.63;5074618;28;20099;-69
2021/05/20 09:40:42;;;;;;;3.20;1.40;;;;;;;17.58;44.37;101105.06;5076974;28;20048;-68
2021/05/20 09:43:21;;;;;;;4.57;1.80;;;;;;;17.00;46.18;101098.22;5087970;28;20071;-69
2021/05/20 09:45:53;;;;;;;5.20;1.92;;;;;;;17.07;45.91;101096.78;5098720;28;20128;-68
2021/05/20 09:48:22;;;;;;;5.75;1.55;;;;;;;17.20;44.97;101095.69;5087729;28;20047;-69
2021/05/20 09:50:51;;;;;;;5.43;1.85;;;;;;;16.60;47.28;101091.47;5068823;28;20126;-69
2021/05/20 09:53:20;;;;;;;4.07;1.50;;;;;;;16.25;49.28;101093.31;5105800;28;20043;-71
2021/05/20 09:55:52;;;;;;;2.83;1.60;;;;;;;16.25;49.94;101088.84;5089962;28;20040;-70
2021/05/20 09:58:22;;;;;;;4.57;1.80;;;;;;;16.27;50.09;101094.06;5090403;28;20119;-68
2021/05/20 10:00:50;;;;;;;3.33;1.85;;;;;;;16.84;47.75;101098.53;5090977;28;20047;-69
2021/05/20 10:03:20;;;;;;;7.07;1.73;;;;;;;16.17;47.56;101093.91;5095416;28;20040;-70
2021/05/20 10:05:53;;;;;;;3.95;1.65;;;;;;;16.46;47.86;101099.66;5074861;28;20072;-70
2021/05/20 10:08:21;;;;;;;2.67;1.73;;;;;;;17.17;47.09;101101.22;5061254;28;20040;-70
2021/05/20 10:10:51;;;;;;;5.22;1.67;;;;;;;17.56;46.14;101100.81;5056580;28;20067;-70
2021/05/20 10:13:25;;;;;;;2.63;1.35;;;;;;;17.91;43.89;101090.84;5087500;28;20047;-70
2021/05/20 10:15:54;;;;;;;3.00;1.20;;;;;;;17.82;44.06;101090.75;5077119;28;20092;-70
2021/05/20 10:18:25;;;;;;;6.75;1.52;;;;;;;18.20;43.19;101096.44;5083997;28;20510;-71
2021/05/20 10:20:58;;;;;;;2.78;1.58;;;;;;;17.63;43.92;101089.56;5073335;28;20123;-69
2021/05/20 10:23:26;;;;;;;3.30;1.80;;;;;;;18.13;44.18;101089.91;5092855;28;20094;-69
2021/05/20 10:25:54;;;;;;;4.00;1.70;;;;;;;18.75;42.52;101090.09;5089106;28;20127;-69
2021/05/20 10:28:23;;;;;;;4.07;1.45;;;;;;;18.36;42.75;101090.63;5091075;28;20048;-68
2021/05/20 10:30:51;;;;;;;3.15;1.67;;;;;;;18.71;42.02;101089.50;5055004;28;20081;-69
2021/05/20 10:33:25;;;;;;;8.40;1.48;;;;;;;18.61;41.38;101089.41;5072274;28;20055;-68
2021/05/20 10:35:54;;;;;;;4.72;1.63;;;;;;;18.19;43.06;101093.88;5052809;28;20089;-70
2021/05/20 10:38:24;;;;;;;2.47;1.30;;;;;;;18.61;42.14;101088.56;5091281;28;20519;-69
2021/05/20 10:41:23;;;;;;;1.55;1.00;;;;;;;18.95;40.00;101087.38;5059625;28;20056;-71
2021/05/20 10:44:12;;;;;;;2.10;1.08;;;;;;;19.00;39.01;101081.63;5086375;28;20067;-69
2021/05/20 10:46:56;;;;;;;4.53;1.38;;;;;;;18.89;40.13;101087.06;5072143;28;20626;-71
2021/05/20 10:49:45;;;;;;;1.30;1.20;;;;;;;17.69;41.83;101078.41;5082098;28;20054;-70
2021/05/20 10:52:34;;;;;;;7.65;1.15;;;;;;;16.96;43.68;101082.47;5077641;28;20051;-68
2021/05/20 10:55:04;;;;;;;2.15;1.15;;;;;;;17.08;43.43;101079.84;5094310;28;20089;-69
2021/05/20 10:57:50;;;;;;;1.77;1.30;;;;;;;16.78;44.88;101075.94;5069462;28;20051;-69
2021/05/20 11:00:30;;;;;;;4.75;1.30;;;;;;;16.91;44.21;101083.81;5069012;28;20059;-67
2021/05/20 11:02:59;;;;;;;4.75;1.60;;;;;;;17.18;43.59;101072.81;5099878;28;20619;-70
2021/05/20 11:05:51;;;;;;;1.98;1.30;;;;;;;17.24;42.02;101082.13;5081115;28;20338;-69
2021/05/20 11:08:30;;;;;;;2.78;1.20;;;;;;;17.24;40.91;101067.00;5075298;28;20135;-72
2021/05/20 11:11:01;;;;;;;3.47;1.98;;;;;;;16.96;41.37;101074.50;5067084;28;20039;-74
2021/05/20 11:13:36;;;;;;;3.70;1.45;;;;;;;16.98;41.78;101070.91;5083364;28;20106;-69
2021/05/20 11:16:29;;;;;;;3.38;2.35;;;;;;;17.56;41.90;101059.09;5071846;28;20060;-71
2021/05/20 11:19:27;;;;;;;6.22;1.83;;;;;;;17.45;42.18;101056.44;5056371;28;20591;-69
2021/05/20 11:24:28;;;;;;;4.05;1.98;;;;;;;16.65;43.61;101068.03;5088415;28;20126;-68
2021/05/20 11:26:59;;;;;;;3.45;1.73;;;;;;;17.10;40.71;101062.78;5065013;28;20127;-72
2021/05/20 11:29:34;;;;;;;3.70;1.52;;;;;;;16.66;40.89;101058.25;5057260;28;20105;-70
2021/05/20 11:32:27;;;;;;;2.17;1.30;;;;;;;17.08;41.08;101059.41;5090013;28;20051;-69
2021/05/20 11:35:20;;;;;;;3.30;1.60;;;;;;;17.38;41.38;101055.22;5050145;28;20040;-72
2021/05/20 11:37:48;;;;;;;4.55;1.58;;;;;;;17.31;41.13;101049.56;5086860;28;20156;-72
2021/05/20 11:40:32;;;;;;;3.60;1.67;;;;;;;17.26;41.36;101058.91;5066404;28;20056;-68
2021/05/20 11:43:02;;;;;;;5.15;1.80;;;;;;;17.35;40.50;101048.38;5079165;28;20498;-68
2021/05/20 11:45:32;;;;;;;3.53;1.75;;;;;;;17.21;41.01;101053.94;5052813;28;20055;-68
2021/05/20 11:48:00;;;;;;;4.15;1.50;;;;;;;17.35;40.92;101043.03;5065437;28;20135;-70
2021/05/20 11:50:29;;;;;;;2.13;1.40;;;;;;;17.64;40.27;101037.16;5076306;28;20102;-70
2021/05/20 11:52:56;;;;;;;2.40;1.13;;;;;;;17.57;39.48;101026.19;5087413;28;20043;-72
2021/05/20 11:55:24;;;;;;;4.95;1.00;;;;;;;17.54;39.52;101029.06;5080464;28;20044;-70